sensor_id;sensor_type;location;lat;lon;timestamp;pressure;altitude;pressure_sealevel;temperature;humidity
68197;BME280;55019;49.382;11.358;2023-04-04T00:01:39;97497.47;;;0.19;56.65
68197;BME280;55019;49.382;11.358;2023-04-04T00:04:06;97494.34;;;0.14;56.44
68197;BME280;55019;49.382;11.358;2023-04-04T00:06:31;97496.94;;;0.29;56.02
68197;BME280;55019;49.382;11.358;2023-04-04T00:08:57;97492.94;;;0.08;56.51
68197;BME280;55019;49.382;11.358;2023-04-04T00:11:25;97492.56;;;-0.01;56.75
68197;BME280;55019;49.382;11.358;2023-04-04T00:13:51;97490.91;;;-0.17;56.13
68197;BME280;55019;49.382;11.358;2023-04-04T00:16:16;97487.75;;;-0.05;56.07
68197;BME280;55019;49.382;11.358;2023-04-04T00:18:42;97489.22;;;-0.02;57.27
68197;BME280;55019;49.382;11.358;2023-04-04T00:21:08;97487.44;;;0.00;55.73
68197;BME280;55019;49.382;11.358;2023-04-04T00:23:33;97488.38;;;-0.02;56.26
68197;BME280;55019;49.382;11.358;2023-04-04T00:25:59;97490.72;;;0.02;56.54
68197;BME280;55019;49.382;11.358;2023-04-04T00:28:25;97486.25;;;-0.09;57.00
68197;BME280;55019;49.382;11.358;2023-04-04T00:30:51;97485.50;;;-0.28;56.22
68197;BME280;55019;49.382;11.358;2023-04-04T00:33:17;97475.34;;;-0.28;56.37
68197;BME280;55019;49.382;11.358;2023-04-04T00:35:42;97471.16;;;-0.29;55.93
68197;BME280;55019;49.382;11.358;2023-04-04T00:38:08;97467.88;;;-0.31;56.01
68197;BME280;55019;49.382;11.358;2023-04-04T00:40:46;97453.38;;;-0.29;55.60
68197;BME280;55019;49.382;11.358;2023-04-04T00:43:13;97462.53;;;-0.42;55.53
68197;BME280;55019;49.382;11.358;2023-04-04T00:45:40;97461.03;;;-0.46;55.73
68197;BME280;55019;49.382;11.358;2023-04-04T00:48:06;97463.94;;;-0.54;55.63
68197;BME280;55019;49.382;11.358;2023-04-04T00:50:32;97466.78;;;-0.43;54.72
68197;BME280;55019;49.382;11.358;2023-04-04T00:52:59;97451.75;;;-0.30;55.17
68197;BME280;55019;49.382;11.358;2023-04-04T00:55:24;97449.84;;;-0.25;55.46
68197;BME280;55019;49.382;11.358;2023-04-04T00:57:51;97454.31;;;-0.47;54.99
68197;BME280;55019;49.382;11.358;2023-04-04T01:00:19;97448.34;;;-0.46;55.52
68197;BME280;55019;49.382;11.358;2023-04-04T01:02:45;97441.41;;;-0.43;56.02
68197;BME280;55019;49.382;11.358;2023-04-04T01:05:12;97446.97;;;-0.36;54.32
68197;BME280;55019;49.382;11.358;2023-04-04T01:07:39;97446.09;;;-0.35;55.11
68197;BME280;55019;49.382;11.358;2023-04-04T01:10:05;97445.88;;;-0.31;54.34
68197;BME280;55019;49.382;11.358;2023-04-04T01:12:33;97440.31;;;-0.22;54.14
68197;BME280;55019;49.382;11.358;2023-04-04T01:14:59;97439.22;;;-0.33;54.47
68197;BME280;55019;49.382;11.358;2023-04-04T01:17:25;97435.66;;;-0.46;54.17
68197;BME280;55019;49.382;11.358;2023-04-04T01:20:06;97430.88;;;-0.52;55.00
68197;BME280;55019;49.382;11.358;2023-04-04T01:22:45;97440.41;;;-0.40;55.41
68197;BME280;55019;49.382;11.358;2023-04-04T01:25:13;97434.00;;;-0.47;55.60
68197;BME280;55019;49.382;11.358;2023-04-04T01:27:42;97425.28;;;-0.42;54.43
68197;BME280;55019;49.382;11.358;2023-04-04T01:30:13;97435.06;;;-0.51;55.54
68197;BME280;55019;49.382;11.358;2023-04-04T01:32:49;97428.94;;;-0.47;56.96
68197;BME280;55019;49.382;11.358;2023-04-04T01:35:33;97429.06;;;-0.33;56.93
68197;BME280;55019;49.382;11.358;2023-04-04T01:38:26;97426.34;;;-0.46;56.07
68197;BME280;55019;49.382;11.358;2023-04-04T01:41:05;97443.56;;;-0.52;57.11
68197;BME280;55019;49.382;11.358;2023-04-04T01:43:33;97427.91;;;-0.60;58.07
68197;BME280;55019;49.382;11.358;2023-04-04T01:46:01;97431.47;;;-0.64;57.87
68197;BME280;55019;49.382;11.358;2023-04-04T01:48:27;97421.94;;;-0.59;57.30
68197;BME280;55019;49.382;11.358;2023-04-04T01:50:55;97426.25;;;-0.61;57.00
68197;BME280;55019;49.382;11.358;2023-04-04T01:53:23;97418.34;;;-0.72;57.08
68197;BME280;55019;49.382;11.358;2023-04-04T01:55:49;97426.56;;;-0.67;57.10
68197;BME280;55019;49.382;11.358;2023-04-04T01:58:15;97413.84;;;-0.84;56.95
68197;BME280;55019;49.382;11.358;2023-04-04T02:00:41;97425.78;;;-0.86;58.44
68197;BME280;55019;49.382;11.358;2023-04-04T02:03:07;97420.16;;;-0.74;57.95
68197;BME280;55019;49.382;11.358;2023-04-04T02:05:33;97419.47;;;-0.78;57.82
68197;BME280;55019;49.382;11.358;2023-04-04T02:07:59;97426.56;;;-0.67;57.38
68197;BME280;55019;49.382;11.358;2023-04-04T02:10:33;97420.75;;;-0.69;57.98
68197;BME280;55019;49.382;11.358;2023-04-04T02:12:58;97417.66;;;-0.76;57.55
68197;BME280;55019;49.382;11.358;2023-04-04T02:15:24;97409.53;;;-0.82;58.28
68197;BME280;55019;49.382;11.358;2023-04-04T02:17:51;97413.44;;;-0.75;58.04
68197;BME280;55019;49.382;11.358;2023-04-04T02:20:17;97407.56;;;-0.77;58.82
68197;BME280;55019;49.382;11.358;2023-04-04T02:22:53;97417.72;;;-0.77;57.96
68197;BME280;55019;49.382;11.358;2023-04-04T02:25:20;97410.28;;;-0.80;58.56
68197;BME280;55019;49.382;11.358;2023-04-04T02:27:46;97411.53;;;-1.06;58.61
68197;BME280;55019;49.382;11.358;2023-04-04T02:30:12;97409.81;;;-1.05;57.46
68197;BME280;55019;49.382;11.358;2023-04-04T02:32:37;97402.97;;;-1.03;58.24
68197;BME280;55019;49.382;11.358;2023-04-04T02:35:06;97409.53;;;-0.99;58.52
68197;BME280;55019;49.382;11.358;2023-04-04T02:37:32;97406.25;;;-1.01;58.89
68197;BME280;55019;49.382;11.358;2023-04-04T02:39:59;97409.13;;;-1.09;58.64
68197;BME280;55019;49.382;11.358;2023-04-04T02:42:25;97398.19;;;-1.09;59.13
68197;BME280;55019;49.382;11.358;2023-04-04T02:44:51;97414.28;;;-1.10;58.96
68197;BME280;55019;49.382;11.358;2023-04-04T02:47:17;97396.69;;;-1.13;58.79
68197;BME280;55019;49.382;11.358;2023-04-04T02:49:44;97415.34;;;-1.14;60.59
68197;BME280;55019;49.382;11.358;2023-04-04T02:52:11;97414.47;;;-1.32;61.62
68197;BME280;55019;49.382;11.358;2023-04-04T02:54:40;97410.16;;;-1.30;61.83
68197;BME280;55019;49.382;11.358;2023-04-04T02:57:09;97402.47;;;-1.28;61.20
68197;BME280;55019;49.382;11.358;2023-04-04T02:59:34;97400.22;;;-1.34;60.80
68197;BME280;55019;49.382;11.358;2023-04-04T03:02:00;97406.88;;;-1.32;60.29
68197;BME280;55019;49.382;11.358;2023-04-04T03:04:27;97412.75;;;-1.31;61.23
68197;BME280;55019;49.382;11.358;2023-04-04T03:06:54;97409.25;;;-1.29;61.64
68197;BME280;55019;49.382;11.358;2023-04-04T03:09:20;97403.59;;;-1.34;61.42
68197;BME280;55019;49.382;11.358;2023-04-04T03:11:46;97414.28;;;-1.27;60.76
68197;BME280;55019;49.382;11.358;2023-04-04T03:14:11;97402.34;;;-1.25;60.67
68197;BME280;55019;49.382;11.358;2023-04-04T03:16:38;97406.38;;;-1.21;59.82
68197;BME280;55019;49.382;11.358;2023-04-04T03:19:05;97394.09;;;-1.30;59.59
68197;BME280;55019;49.382;11.358;2023-04-04T03:21:32;97402.16;;;-1.39;59.94
68197;BME280;55019;49.382;11.358;2023-04-04T03:23:57;97405.72;;;-1.43;60.93
68197;BME280;55019;49.382;11.358;2023-04-04T03:26:23;97398.41;;;-1.49;60.67
68197;BME280;55019;49.382;11.358;2023-04-04T03:28:49;97395.28;;;-1.37;60.28
68197;BME280;55019;49.382;11.358;2023-04-04T03:31:18;97396.63;;;-1.47;59.97
68197;BME280;55019;49.382;11.358;2023-04-04T03:33:44;97396.47;;;-1.44;60.27
68197;BME280;55019;49.382;11.358;2023-04-04T03:36:11;97399.25;;;-1.48;60.26
68197;BME280;55019;49.382;11.358;2023-04-04T03:38:37;97390.03;;;-1.51;60.13
68197;BME280;55019;49.382;11.358;2023-04-04T03:41:04;97399.16;;;-1.47;61.57
68197;BME280;55019;49.382;11.358;2023-04-04T03:43:31;97396.22;;;-1.56;61.93
68197;BME280;55019;49.382;11.358;2023-04-04T03:46:04;97389.84;;;-1.46;60.70
68197;BME280;55019;49.382;11.358;2023-04-04T03:48:30;97392.16;;;-1.42;60.31
68197;BME280;55019;49.382;11.358;2023-04-04T03:50:56;97390.88;;;-1.50;61.01
68197;BME280;55019;49.382;11.358;2023-04-04T03:53:23;97384.97;;;-1.51;60.95
68197;BME280;55019;49.382;11.358;2023-04-04T03:55:49;97395.81;;;-1.47;60.86
68197;BME280;55019;49.382;11.358;2023-04-04T03:58:15;97393.44;;;-1.69;61.26
68197;BME280;55019;49.382;11.358;2023-04-04T04:00:41;97392.59;;;-1.69;60.58
68197;BME280;55019;49.382;11.358;2023-04-04T04:03:07;97399.78;;;-1.60;61.11
68197;BME280;55019;49.382;11.358;2023-04-04T04:05:32;97391.84;;;-1.71;60.99
68197;BME280;55019;49.382;11.358;2023-04-04T04:07:58;97397.31;;;-1.62;60.71
68197;BME280;55019;49.382;11.358;2023-04-04T04:10:23;97387.19;;;-1.62;60.63
68197;BME280;55019;49.382;11.358;2023-04-04T04:12:49;97397.03;;;-1.56;61.35
68197;BME280;55019;49.382;11.358;2023-04-04T04:15:15;97391.09;;;-1.55;60.42
68197;BME280;55019;49.382;11.358;2023-04-04T04:17:42;97374.66;;;-1.65;60.90
68197;BME280;55019;49.382;11.358;2023-04-04T04:20:09;97391.03;;;-1.90;60.56
68197;BME280;55019;49.382;11.358;2023-04-04T04:22:45;97395.97;;;-1.69;61.21
68197;BME280;55019;49.382;11.358;2023-04-04T04:25:12;97400.28;;;-1.71;60.20
68197;BME280;55019;49.382;11.358;2023-04-04T04:27:40;97390.44;;;-1.77;60.49
68197;BME280;55019;49.382;11.358;2023-04-04T04:30:07;97392.41;;;-1.65;60.03
68197;BME280;55019;49.382;11.358;2023-04-04T04:32:38;97388.78;;;-1.78;61.03
68197;BME280;55019;49.382;11.358;2023-04-04T04:35:04;97393.34;;;-1.86;60.93
68197;BME280;55019;49.382;11.358;2023-04-04T04:37:33;97396.91;;;-1.90;61.21
68197;BME280;55019;49.382;11.358;2023-04-04T04:39:59;97394.38;;;-1.90;61.20
68197;BME280;55019;49.382;11.358;2023-04-04T04:42:42;97393.75;;;-1.95;61.55
68197;BME280;55019;49.382;11.358;2023-04-04T04:45:08;97398.56;;;-1.89;60.86
68197;BME280;55019;49.382;11.358;2023-04-04T04:47:37;97395.28;;;-1.91;61.47
68197;BME280;55019;49.382;11.358;2023-04-04T04:50:06;97394.25;;;-1.87;60.64
68197;BME280;55019;49.382;11.358;2023-04-04T04:52:40;97393.84;;;-1.96;62.04
68197;BME280;55019;49.382;11.358;2023-04-04T04:55:06;97394.19;;;-1.85;62.26
68197;BME280;55019;49.382;11.358;2023-04-04T04:57:35;97402.13;;;-1.93;62.49
68197;BME280;55019;49.382;11.358;2023-04-04T05:00:06;97397.94;;;-1.94;62.25
68197;BME280;55019;49.382;11.358;2023-04-04T05:02:32;97398.78;;;-1.93;61.87
68197;BME280;55019;49.382;11.358;2023-04-04T05:04:58;97402.06;;;-1.91;61.05
68197;BME280;55019;49.382;11.358;2023-04-04T05:07:25;97405.97;;;-1.84;60.99
68197;BME280;55019;49.382;11.358;2023-04-04T05:09:52;97392.53;;;-2.05;61.47
68197;BME280;55019;49.382;11.358;2023-04-04T05:12:20;97392.06;;;-1.76;61.30
68197;BME280;55019;49.382;11.358;2023-04-04T05:14:48;97405.69;;;-1.78;62.00
68197;BME280;55019;49.382;11.358;2023-04-04T05:17:15;97398.03;;;-1.77;62.58
68197;BME280;55019;49.382;11.358;2023-04-04T05:19:41;97406.63;;;-1.81;61.98
68197;BME280;55019;49.382;11.358;2023-04-04T05:22:08;97407.88;;;-1.71;61.22
68197;BME280;55019;49.382;11.358;2023-04-04T05:24:41;97409.81;;;-1.76;60.90
68197;BME280;55019;49.382;11.358;2023-04-04T05:27:10;97404.84;;;-1.79;62.05
68197;BME280;55019;49.382;11.358;2023-04-04T05:29:41;97397.66;;;-1.69;62.35
68197;BME280;55019;49.382;11.358;2023-04-04T05:32:07;97397.75;;;-1.71;61.82
68197;BME280;55019;49.382;11.358;2023-04-04T05:34:35;97392.53;;;-1.68;61.18
68197;BME280;55019;49.382;11.358;2023-04-04T05:37:05;97396.06;;;-1.53;61.49
68197;BME280;55019;49.382;11.358;2023-04-04T05:39:32;97396.91;;;-1.53;60.55
68197;BME280;55019;49.382;11.358;2023-04-04T05:42:02;97404.94;;;-1.62;60.30
68197;BME280;55019;49.382;11.358;2023-04-04T05:44:32;97406.16;;;-1.52;60.65
68197;BME280;55019;49.382;11.358;2023-04-04T05:46:57;97404.03;;;-1.61;61.63
68197;BME280;55019;49.382;11.358;2023-04-04T05:49:24;97389.69;;;-1.43;60.76
68197;BME280;55019;49.382;11.358;2023-04-04T05:51:55;97407.22;;;-1.39;60.67
68197;BME280;55019;49.382;11.358;2023-04-04T05:54:22;97391.97;;;-1.56;61.51
68197;BME280;55019;49.382;11.358;2023-04-04T05:56:50;97405.78;;;-1.26;61.01
68197;BME280;55019;49.382;11.358;2023-04-04T05:59:27;97405.94;;;-1.12;60.22
68197;BME280;55019;49.382;11.358;2023-04-04T06:01:57;97417.94;;;-1.16;60.70
68197;BME280;55019;49.382;11.358;2023-04-04T06:04:23;97408.53;;;-1.14;59.53
68197;BME280;55019;49.382;11.358;2023-04-04T06:06:50;97408.19;;;-1.06;60.77
68197;BME280;55019;49.382;11.358;2023-04-04T06:09:16;97399.53;;;-1.02;60.17
68197;BME280;55019;49.382;11.358;2023-04-04T06:11:42;97404.84;;;-0.90;60.07
68197;BME280;55019;49.382;11.358;2023-04-04T06:14:10;97408.47;;;-0.78;59.39
68197;BME280;55019;49.382;11.358;2023-04-04T06:16:36;97410.28;;;-0.80;59.77
68197;BME280;55019;49.382;11.358;2023-04-04T06:19:02;97404.47;;;-0.65;58.60
68197;BME280;55019;49.382;11.358;2023-04-04T06:21:28;97411.09;;;-0.46;59.15
68197;BME280;55019;49.382;11.358;2023-04-04T06:23:54;97409.94;;;-0.40;59.37
68197;BME280;55019;49.382;11.358;2023-04-04T06:26:21;97413.81;;;-0.16;59.51
68197;BME280;55019;49.382;11.358;2023-04-04T06:28:51;97421.50;;;-0.18;59.21
68197;BME280;55019;49.382;11.358;2023-04-04T06:31:21;97413.50;;;-0.27;58.33
68197;BME280;55019;49.382;11.358;2023-04-04T06:33:48;97419.34;;;-0.25;58.19
68197;BME280;55019;49.382;11.358;2023-04-04T06:36:14;97413.13;;;-0.20;59.04
68197;BME280;55019;49.382;11.358;2023-04-04T06:38:40;97417.41;;;-0.20;59.28
68197;BME280;55019;49.382;11.358;2023-04-04T06:41:14;97419.09;;;0.11;58.92
68197;BME280;55019;49.382;11.358;2023-04-04T06:43:39;97414.09;;;0.10;58.34
68197;BME280;55019;49.382;11.358;2023-04-04T06:46:06;97423.22;;;0.14;59.34
68197;BME280;55019;49.382;11.358;2023-04-04T06:48:31;97418.31;;;0.26;58.95
68197;BME280;55019;49.382;11.358;2023-04-04T06:50:57;97414.88;;;0.27;57.41
68197;BME280;55019;49.382;11.358;2023-04-04T06:53:24;97416.75;;;0.39;57.73
68197;BME280;55019;49.382;11.358;2023-04-04T06:55:49;97419.72;;;0.47;57.49
68197;BME280;55019;49.382;11.358;2023-04-04T06:58:16;97416.50;;;0.59;57.92
68197;BME280;55019;49.382;11.358;2023-04-04T07:00:42;97415.53;;;0.62;57.42
68197;BME280;55019;49.382;11.358;2023-04-04T07:03:07;97413.13;;;0.74;57.58
68197;BME280;55019;49.382;11.358;2023-04-04T07:05:36;97414.69;;;0.92;57.43
68197;BME280;55019;49.382;11.358;2023-04-04T07:08:03;97423.63;;;0.84;58.02
68197;BME280;55019;49.382;11.358;2023-04-04T07:10:29;97413.75;;;1.38;56.42
68197;BME280;55019;49.382;11.358;2023-04-04T07:12:55;97416.88;;;1.57;55.93
68197;BME280;55019;49.382;11.358;2023-04-04T07:15:20;97416.38;;;1.80;54.81
68197;BME280;55019;49.382;11.358;2023-04-04T07:17:47;97412.16;;;2.21;54.80
68197;BME280;55019;49.382;11.358;2023-04-04T07:20:13;97421.47;;;2.08;53.48
68197;BME280;55019;49.382;11.358;2023-04-04T07:22:39;97428.63;;;2.01;54.29
68197;BME280;55019;49.382;11.358;2023-04-04T07:25:06;97410.28;;;2.10;53.60
68197;BME280;55019;49.382;11.358;2023-04-04T07:27:32;97417.63;;;2.43;53.82
68197;BME280;55019;49.382;11.358;2023-04-04T07:29:58;97413.34;;;2.70;52.18
68197;BME280;55019;49.382;11.358;2023-04-04T07:32:24;97415.50;;;3.28;51.52
68197;BME280;55019;49.382;11.358;2023-04-04T07:34:50;97417.19;;;3.54;49.45
68197;BME280;55019;49.382;11.358;2023-04-04T07:37:15;97414.72;;;3.53;49.67
68197;BME280;55019;49.382;11.358;2023-04-04T07:39:41;97408.31;;;3.60;49.74
68197;BME280;55019;49.382;11.358;2023-04-04T07:42:07;97418.50;;;4.34;49.73
68197;BME280;55019;49.382;11.358;2023-04-04T07:44:32;97418.44;;;4.95;46.93
68197;BME280;55019;49.382;11.358;2023-04-04T07:46:59;97420.78;;;4.98;46.40
68197;BME280;55019;49.382;11.358;2023-04-04T07:49:25;97425.97;;;4.86;44.71
68197;BME280;55019;49.382;11.358;2023-04-04T07:51:50;97425.88;;;4.75;45.10
68197;BME280;55019;49.382;11.358;2023-04-04T07:54:16;97422.13;;;4.68;44.80
68197;BME280;55019;49.382;11.358;2023-04-04T07:56:41;97418.50;;;5.64;44.22
68197;BME280;55019;49.382;11.358;2023-04-04T07:59:07;97409.34;;;5.83;43.03
68197;BME280;55019;49.382;11.358;2023-04-04T08:01:33;97423.78;;;4.56;43.79
68197;BME280;55019;49.382;11.358;2023-04-04T08:03:58;97420.50;;;4.19;44.78
68197;BME280;55019;49.382;11.358;2023-04-04T08:06:24;97418.66;;;3.96;45.91
68197;BME280;55019;49.382;11.358;2023-04-04T08:08:50;97430.31;;;4.00;46.36
68197;BME280;55019;49.382;11.358;2023-04-04T08:11:16;97428.94;;;4.44;47.58
68197;BME280;55019;49.382;11.358;2023-04-04T08:13:43;97425.03;;;4.51;46.35
68197;BME280;55019;49.382;11.358;2023-04-04T08:16:09;97422.44;;;4.15;47.10
68197;BME280;55019;49.382;11.358;2023-04-04T08:18:34;97421.13;;;4.10;45.33
68197;BME280;55019;49.382;11.358;2023-04-04T08:21:00;97424.78;;;4.18;45.43
68197;BME280;55019;49.382;11.358;2023-04-04T08:23:25;97421.41;;;3.93;44.59
68197;BME280;55019;49.382;11.358;2023-04-04T08:25:52;97419.16;;;3.76;44.92
68197;BME280;55019;49.382;11.358;2023-04-04T08:28:18;97420.69;;;3.14;45.57
68197;BME280;55019;49.382;11.358;2023-04-04T08:30:43;97416.41;;;3.27;45.14
68197;BME280;55019;49.382;11.358;2023-04-04T08:33:09;97417.53;;;3.23;45.69
68197;BME280;55019;49.382;11.358;2023-04-04T08:35:35;97418.66;;;3.19;46.95
68197;BME280;55019;49.382;11.358;2023-04-04T08:38:01;97418.88;;;2.50;46.26
68197;BME280;55019;49.382;11.358;2023-04-04T08:40:30;97422.25;;;2.90;46.50
68197;BME280;55019;49.382;11.358;2023-04-04T08:42:57;97424.78;;;3.29;44.41
68197;BME280;55019;49.382;11.358;2023-04-04T08:45:24;97418.47;;;3.86;43.53
68197;BME280;55019;49.382;11.358;2023-04-04T08:47:52;97420.00;;;4.01;44.38
68197;BME280;55019;49.382;11.358;2023-04-04T08:50:19;97413.41;;;4.34;42.87
68197;BME280;55019;49.382;11.358;2023-04-04T08:52:46;97411.59;;;4.60;42.63
68197;BME280;55019;49.382;11.358;2023-04-04T08:55:12;97404.66;;;5.32;40.67
68197;BME280;55019;49.382;11.358;2023-04-04T08:57:38;97408.84;;;4.86;40.37
68197;BME280;55019;49.382;11.358;2023-04-04T09:00:04;97406.22;;;5.46;40.46
68197;BME280;55019;49.382;11.358;2023-04-04T09:02:54;97403.81;;;6.44;39.53
68197;BME280;55019;49.382;11.358;2023-04-04T09:05:23;97398.38;;;7.11;40.99
68197;BME280;55019;49.382;11.358;2023-04-04T09:07:50;97391.09;;;7.89;36.54
68197;BME280;55019;49.382;11.358;2023-04-04T09:10:16;97391.78;;;8.80;34.63
68197;BME280;55019;49.382;11.358;2023-04-04T09:12:44;97394.44;;;9.28;35.99
68197;BME280;55019;49.382;11.358;2023-04-04T09:15:12;97406.63;;;9.16;34.62
68197;BME280;55019;49.382;11.358;2023-04-04T09:17:38;97405.53;;;9.28;33.66
68197;BME280;55019;49.382;11.358;2023-04-04T09:20:33;97404.09;;;8.67;35.56
68197;BME280;55019;49.382;11.358;2023-04-04T09:22:59;97393.72;;;8.97;35.00
68197;BME280;55019;49.382;11.358;2023-04-04T09:25:25;97387.78;;;9.44;35.20
68197;BME280;55019;49.382;11.358;2023-04-04T09:27:51;97393.19;;;9.03;33.99
68197;BME280;55019;49.382;11.358;2023-04-04T09:30:18;97393.72;;;9.73;34.38
68197;BME280;55019;49.382;11.358;2023-04-04T09:32:45;97397.91;;;10.02;32.52
68197;BME280;55019;49.382;11.358;2023-04-04T09:35:11;97397.28;;;10.27;31.63
68197;BME280;55019;49.382;11.358;2023-04-04T09:37:40;97401.41;;;9.92;31.76
68197;BME280;55019;49.382;11.358;2023-04-04T09:40:10;97399.88;;;8.27;33.90
68197;BME280;55019;49.382;11.358;2023-04-04T09:42:36;97404.03;;;8.19;33.84
68197;BME280;55019;49.382;11.358;2023-04-04T09:45:02;97390.13;;;8.10;36.53
68197;BME280;55019;49.382;11.358;2023-04-04T09:47:28;97407.56;;;9.15;34.18
68197;BME280;55019;49.382;11.358;2023-04-04T09:49:59;97400.53;;;10.29;33.19
68197;BME280;55019;49.382;11.358;2023-04-04T09:52:25;97402.28;;;10.38;33.14
68197;BME280;55019;49.382;11.358;2023-04-04T09:54:59;97394.25;;;11.13;30.26
68197;BME280;55019;49.382;11.358;2023-04-04T09:57:30;97403.63;;;9.78;31.15
68197;BME280;55019;49.382;11.358;2023-04-04T10:00:01;97400.78;;;9.14;33.34
68197;BME280;55019;49.382;11.358;2023-04-04T10:02:36;97409.50;;;8.35;33.54
68197;BME280;55019;49.382;11.358;2023-04-04T10:05:03;97395.69;;;8.65;35.32
68197;BME280;55019;49.382;11.358;2023-04-04T10:07:30;97402.97;;;8.60;33.93
68197;BME280;55019;49.382;11.358;2023-04-04T10:10:00;97403.84;;;8.11;33.46
68197;BME280;55019;49.382;11.358;2023-04-04T10:12:26;97392.53;;;7.20;37.16
68197;BME280;55019;49.382;11.358;2023-04-04T10:14:59;97396.94;;;7.29;37.00
68197;BME280;55019;49.382;11.358;2023-04-04T10:17:39;97395.84;;;8.14;35.82
68197;BME280;55019;49.382;11.358;2023-04-04T10:20:06;97394.16;;;8.54;35.71
68197;BME280;55019;49.382;11.358;2023-04-04T10:22:34;97386.75;;;8.30;34.47
68197;BME280;55019;49.382;11.358;2023-04-04T10:25:00;97393.53;;;6.00;37.42
68197;BME280;55019;49.382;11.358;2023-04-04T10:27:26;97400.78;;;6.39;37.94
68197;BME280;55019;49.382;11.358;2023-04-04T10:29:52;97396.81;;;6.46;37.94
68197;BME280;55019;49.382;11.358;2023-04-04T10:32:25;97386.31;;;6.38;37.58
68197;BME280;55019;49.382;11.358;2023-04-04T10:35:06;97386.28;;;7.03;39.14
68197;BME280;55019;49.382;11.358;2023-04-04T10:37:57;97389.28;;;7.59;38.72
68197;BME280;55019;49.382;11.358;2023-04-04T10:40:25;97380.66;;;7.40;37.91
68197;BME280;55019;49.382;11.358;2023-04-04T10:42:52;97380.50;;;7.41;37.27
68197;BME280;55019;49.382;11.358;2023-04-04T10:45:19;97379.81;;;7.39;37.68
68197;BME280;55019;49.382;11.358;2023-04-04T10:47:46;97385.50;;;6.91;37.19
68197;BME280;55019;49.382;11.358;2023-04-04T10:50:12;97392.94;;;5.97;38.03
68197;BME280;55019;49.382;11.358;2023-04-04T10:52:39;97388.03;;;6.49;39.02
68197;BME280;55019;49.382;11.358;2023-04-04T10:55:09;97392.28;;;6.81;36.72
68197;BME280;55019;49.382;11.358;2023-04-04T10:57:37;97384.19;;;6.43;37.47
68197;BME280;55019;49.382;11.358;2023-04-04T11:00:06;97391.28;;;6.73;38.31
68197;BME280;55019;49.382;11.358;2023-04-04T11:02:53;97373.41;;;8.46;35.35
68197;BME280;55019;49.382;11.358;2023-04-04T11:05:23;97383.97;;;9.29;33.40
68197;BME280;55019;49.382;11.358;2023-04-04T11:08:05;97376.84;;;10.07;34.42
68197;BME280;55019;49.382;11.358;2023-04-04T11:10:41;97375.63;;;10.38;32.75
68197;BME280;55019;49.382;11.358;2023-04-04T11:13:10;97372.47;;;10.71;33.98
68197;BME280;55019;49.382;11.358;2023-04-04T11:15:53;97374.63;;;10.48;33.28
68197;BME280;55019;49.382;11.358;2023-04-04T11:18:21;97368.03;;;11.60;32.71
68197;BME280;55019;49.382;11.358;2023-04-04T11:20:48;97369.72;;;11.94;32.57
68197;BME280;55019;49.382;11.358;2023-04-04T11:25:40;97366.00;;;11.54;28.78
68197;BME280;55019;49.382;11.358;2023-04-04T11:33:56;97365.66;;;9.23;32.68
68197;BME280;55019;49.382;11.358;2023-04-04T11:37:13;97363.03;;;8.06;33.91
68197;BME280;55019;49.382;11.358;2023-04-04T11:39:14;97358.56;;;7.37;36.10
68197;BME280;55019;49.382;11.358;2023-04-04T11:44:24;97365.59;;;6.62;39.13
68197;BME280;55019;49.382;11.358;2023-04-04T11:47:00;97357.50;;;7.40;37.31
68197;BME280;55019;49.382;11.358;2023-04-04T11:49:30;97368.44;;;8.03;37.44
68197;BME280;55019;49.382;11.358;2023-04-04T11:52:06;97361.25;;;7.36;38.20
68197;BME280;55019;49.382;11.358;2023-04-04T11:54:33;97333.97;;;7.44;36.52
68197;BME280;55019;49.382;11.358;2023-04-04T11:56:59;97352.56;;;8.19;39.15
68197;BME280;55019;49.382;11.358;2023-04-04T11:59:26;97348.09;;;8.21;38.07
68197;BME280;55019;49.382;11.358;2023-04-04T12:01:53;97335.91;;;9.28;36.12
68197;BME280;55019;49.382;11.358;2023-04-04T12:04:20;97334.41;;;9.45;32.15
68197;BME280;55019;49.382;11.358;2023-04-04T12:06:53;97340.22;;;10.21;32.17
68197;BME280;55019;49.382;11.358;2023-04-04T12:09:21;97333.38;;;11.01;32.23
68197;BME280;55019;49.382;11.358;2023-04-04T12:11:48;97335.06;;;10.48;30.45
68197;BME280;55019;49.382;11.358;2023-04-04T12:14:19;97329.41;;;11.66;31.23
68197;BME280;55019;49.382;11.358;2023-04-04T12:16:53;97334.97;;;12.38;30.72
68197;BME280;55019;49.382;11.358;2023-04-04T12:19:19;97332.28;;;12.14;29.93
68197;BME280;55019;49.382;11.358;2023-04-04T12:21:47;97351.63;;;12.28;28.39
68197;BME280;55019;49.382;11.358;2023-04-04T12:24:14;97333.84;;;11.99;27.97
68197;BME280;55019;49.382;11.358;2023-04-04T12:26:42;97339.16;;;11.72;30.75
68197;BME280;55019;49.382;11.358;2023-04-04T12:29:10;97322.34;;;9.45;33.27
68197;BME280;55019;49.382;11.358;2023-04-04T12:31:37;97323.66;;;10.41;34.84
68197;BME280;55019;49.382;11.358;2023-04-04T12:34:04;97327.88;;;10.86;31.66
68197;BME280;55019;49.382;11.358;2023-04-04T12:36:30;97331.16;;;10.07;31.39
68197;BME280;55019;49.382;11.358;2023-04-04T12:39:03;97317.06;;;9.83;32.59
68197;BME280;55019;49.382;11.358;2023-04-04T12:41:31;97322.75;;;8.74;33.34
68197;BME280;55019;49.382;11.358;2023-04-04T12:44:01;97316.69;;;9.78;33.63
68197;BME280;55019;49.382;11.358;2023-04-04T12:46:33;97318.13;;;10.09;32.19
68197;BME280;55019;49.382;11.358;2023-04-04T12:48:59;97310.28;;;9.82;33.71
68197;BME280;55019;49.382;11.358;2023-04-04T12:51:31;97309.94;;;10.13;32.29
68197;BME280;55019;49.382;11.358;2023-04-04T12:53:58;97313.56;;;10.47;32.84
68197;BME280;55019;49.382;11.358;2023-04-04T12:56:27;97314.94;;;9.79;34.20
68197;BME280;55019;49.382;11.358;2023-04-04T12:58:59;97310.97;;;8.91;36.04
68197;BME280;55019;49.382;11.358;2023-04-04T13:01:29;97315.97;;;9.49;35.65
68197;BME280;55019;49.382;11.358;2023-04-04T13:03:56;97311.78;;;9.01;35.99
68197;BME280;55019;49.382;11.358;2023-04-04T13:06:27;97315.22;;;8.43;35.11
68197;BME280;55019;49.382;11.358;2023-04-04T13:08:54;97314.41;;;8.33;35.90
68197;BME280;55019;49.382;11.358;2023-04-04T13:11:20;97314.50;;;7.72;37.46